sensor_id;sensor_type;location;lat;lon;timestamp;P1;durP1;ratioP1;P2;durP2;ratioP2
74620;SDS011;64861;47.546;19.254;2023-06-01T05:31:03;23.67;;;2.25;;
74620;SDS011;64861;47.546;19.254;2023-06-01T05:33:28;18.35;;;2.08;;
74620;SDS011;64861;47.546;19.254;2023-06-01T05:35:54;15.93;;;2.42;;
74620;SDS011;64861;47.546;19.254;2023-06-01T05:38:19;15.70;;;2.30;;
74620;SDS011;64861;47.546;19.254;2023-06-01T05:40:45;10.95;;;2.25;;
74620;SDS011;64861;47.546;19.254;2023-06-01T05:43:11;12.50;;;2.15;;
74620;SDS011;64861;47.546;19.254;2023-06-01T05:45:36;7.05;;;1.73;;
74620;SDS011;64861;47.546;19.254;2023-06-01T05:48:02;10.73;;;2.38;;
74620;SDS011;64861;47.546;19.254;2023-06-01T05:50:28;8.40;;;1.98;;
74620;SDS011;64861;47.546;19.254;2023-06-01T05:52:53;11.45;;;2.00;;
74620;SDS011;64861;47.546;19.254;2023-06-01T05:55:19;12.27;;;2.17;;
74620;SDS011;64861;47.546;19.254;2023-06-01T05:57:45;11.52;;;1.95;;
74620;SDS011;64861;47.546;19.254;2023-06-01T06:00:13;11.13;;;1.98;;
74620;SDS011;64861;47.546;19.254;2023-06-01T06:02:40;11.82;;;2.10;;
74620;SDS011;64861;47.546;19.254;2023-06-01T06:05:09;11.20;;;2.50;;
74620;SDS011;64861;47.546;19.254;2023-06-01T06:07:37;11.63;;;2.47;;
74620;SDS011;64861;47.546;19.254;2023-06-01T06:10:03;11.52;;;1.95;;
74620;SDS011;64861;47.546;19.254;2023-06-01T06:12:29;9.07;;;2.10;;
74620;SDS011;64861;47.546;19.254;2023-06-01T06:14:54;16.25;;;2.38;;
74620;SDS011;64861;47.546;19.254;2023-06-01T06:17:20;8.75;;;2.25;;
74620;SDS011;64861;47.546;19.254;2023-06-01T06:19:46;15.10;;;2.50;;
74620;SDS011;64861;47.546;19.254;2023-06-01T06:22:12;14.18;;;2.35;;
74620;SDS011;64861;47.546;19.254;2023-06-01T06:24:38;8.30;;;1.70;;
74620;SDS011;64861;47.546;19.254;2023-06-01T06:27:03;21.77;;;2.63;;
74620;SDS011;64861;47.546;19.254;2023-06-01T06:29:29;14.60;;;2.20;;
74620;SDS011;64861;47.546;19.254;2023-06-01T06:31:55;21.25;;;3.80;;
74620;SDS011;64861;47.546;19.254;2023-06-01T06:34:20;21.48;;;2.60;;
74620;SDS011;64861;47.546;19.254;2023-06-01T06:36:46;15.52;;;2.78;;
74620;SDS011;64861;47.546;19.254;2023-06-01T06:39:12;21.55;;;2.90;;
74620;SDS011;64861;47.546;19.254;2023-06-01T06:41:39;16.05;;;2.90;;
74620;SDS011;64861;47.546;19.254;2023-06-01T06:44:06;20.55;;;2.63;;
74620;SDS011;64861;47.546;19.254;2023-06-01T06:46:31;35.40;;;2.75;;
74620;SDS011;64861;47.546;19.254;2023-06-01T06:48:57;13.02;;;2.03;;
74620;SDS011;64861;47.546;19.254;2023-06-01T06:51:22;14.43;;;2.13;;
74620;SDS011;64861;47.546;19.254;2023-06-01T06:53:48;15.55;;;2.53;;
74620;SDS011;64861;47.546;19.254;2023-06-01T06:56:13;15.00;;;2.30;;
74620;SDS011;64861;47.546;19.254;2023-06-01T06:58:39;18.27;;;2.90;;
74620;SDS011;64861;47.546;19.254;2023-06-01T07:01:05;17.67;;;2.40;;
74620;SDS011;64861;47.546;19.254;2023-06-01T07:03:31;14.07;;;2.45;;
74620;SDS011;64861;47.546;19.254;2023-06-01T07:05:57;20.42;;;2.67;;
74620;SDS011;64861;47.546;19.254;2023-06-01T07:08:22;16.85;;;2.95;;
74620;SDS011;64861;47.546;19.254;2023-06-01T07:10:48;12.13;;;2.47;;
74620;SDS011;64861;47.546;19.254;2023-06-01T07:13:13;13.13;;;2.40;;
74620;SDS011;64861;47.546;19.254;2023-06-01T07:15:39;10.63;;;2.20;;
74620;SDS011;64861;47.546;19.254;2023-06-01T07:18:05;17.83;;;2.10;;
74620;SDS011;64861;47.546;19.254;2023-06-01T07:20:31;15.07;;;2.50;;
74620;SDS011;64861;47.546;19.254;2023-06-01T07:22:57;12.25;;;2.40;;
74620;SDS011;64861;47.546;19.254;2023-06-01T07:25:22;11.88;;;2.13;;
74620;SDS011;64861;47.546;19.254;2023-06-01T07:27:48;12.80;;;2.05;;
74620;SDS011;64861;47.546;19.254;2023-06-01T07:30:14;9.10;;;2.00;;
74620;SDS011;64861;47.546;19.254;2023-06-01T07:32:40;8.50;;;1.90;;
74620;SDS011;64861;47.546;19.254;2023-06-01T07:35:07;11.50;;;2.22;;
74620;SDS011;64861;47.546;19.254;2023-06-01T07:37:32;12.18;;;2.28;;
74620;SDS011;64861;47.546;19.254;2023-06-01T07:39:58;15.60;;;1.80;;
74620;SDS011;64861;47.546;19.254;2023-06-01T07:42:24;10.18;;;2.10;;
74620;SDS011;64861;47.546;19.254;2023-06-01T07:44:50;8.88;;;2.00;;
74620;SDS011;64861;47.546;19.254;2023-06-01T07:47:16;29.60;;;2.65;;
74620;SDS011;64861;47.546;19.254;2023-06-01T07:49:41;11.45;;;2.13;;
74620;SDS011;64861;47.546;19.254;2023-06-01T07:52:07;15.63;;;2.80;;
74620;SDS011;64861;47.546;19.254;2023-06-01T07:54:33;11.35;;;2.38;;
74620;SDS011;64861;47.546;19.254;2023-06-01T07:57:01;23.42;;;2.70;;
74620;SDS011;64861;47.546;19.254;2023-06-01T07:59:28;11.43;;;1.77;;
74620;SDS011;64861;47.546;19.254;2023-06-01T08:01:54;11.85;;;2.13;;
74620;SDS011;64861;47.546;19.254;2023-06-01T08:04:21;16.45;;;1.88;;
74620;SDS011;64861;47.546;19.254;2023-06-01T08:06:49;19.00;;;2.25;;
74620;SDS011;64861;47.546;19.254;2023-06-01T08:09:18;18.90;;;2.05;;
74620;SDS011;64861;47.546;19.254;2023-06-01T08:11:45;9.75;;;1.98;;
74620;SDS011;64861;47.546;19.254;2023-06-01T08:14:10;11.10;;;2.10;;
74620;SDS011;64861;47.546;19.254;2023-06-01T08:16:36;9.90;;;2.13;;
74620;SDS011;64861;47.546;19.254;2023-06-01T08:19:01;11.38;;;1.73;;
74620;SDS011;64861;47.546;19.254;2023-06-01T08:21:28;9.00;;;2.08;;
74620;SDS011;64861;47.546;19.254;2023-06-01T08:23:53;9.75;;;2.10;;
74620;SDS011;64861;47.546;19.254;2023-06-01T08:26:22;11.13;;;2.10;;
74620;SDS011;64861;47.546;19.254;2023-06-01T08:28:48;12.43;;;2.22;;
74620;SDS011;64861;47.546;19.254;2023-06-01T08:31:20;11.50;;;2.15;;
74620;SDS011;64861;47.546;19.254;2023-06-01T08:33:47;14.20;;;1.85;;
74620;SDS011;64861;47.546;19.254;2023-06-01T08:36:13;12.52;;;2.25;;
74620;SDS011;64861;47.546;19.254;2023-06-01T08:38:39;16.08;;;1.77;;
74620;SDS011;64861;47.546;19.254;2023-06-01T08:41:10;14.48;;;1.83;;
74620;SDS011;64861;47.546;19.254;2023-06-01T08:43:43;12.90;;;2.22;;
74620;SDS011;64861;47.546;19.254;2023-06-01T08:46:13;7.53;;;1.80;;
74620;SDS011;64861;47.546;19.254;2023-06-01T08:48:42;8.73;;;2.00;;
74620;SDS011;64861;47.546;19.254;2023-06-01T08:51:08;14.20;;;2.10;;
74620;SDS011;64861;47.546;19.254;2023-06-01T08:53:34;6.18;;;1.80;;
74620;SDS011;64861;47.546;19.254;2023-06-01T08:56:03;9.43;;;1.70;;
74620;SDS011;64861;47.546;19.254;2023-06-01T08:58:29;10.50;;;1.65;;
74620;SDS011;64861;47.546;19.254;2023-06-01T09:00:55;8.68;;;1.73;;
74620;SDS011;64861;47.546;19.254;2023-06-01T09:03:23;9.02;;;1.50;;
74620;SDS011;64861;47.546;19.254;2023-06-01T09:05:49;7.93;;;1.70;;
74620;SDS011;64861;47.546;19.254;2023-06-01T09:08:14;9.20;;;2.00;;
74620;SDS011;64861;47.546;19.254;2023-06-01T09:10:41;9.55;;;1.50;;
74620;SDS011;64861;47.546;19.254;2023-06-01T09:13:06;6.97;;;1.63;;
74620;SDS011;64861;47.546;19.254;2023-06-01T09:15:32;8.77;;;1.65;;
74620;SDS011;64861;47.546;19.254;2023-06-01T09:18:10;8.48;;;1.63;;
74620;SDS011;64861;47.546;19.254;2023-06-01T09:20:35;9.20;;;1.83;;
74620;SDS011;64861;47.546;19.254;2023-06-01T09:23:03;8.60;;;1.77;;
74620;SDS011;64861;47.546;19.254;2023-06-01T09:25:29;6.57;;;1.52;;
74620;SDS011;64861;47.546;19.254;2023-06-01T09:27:56;5.47;;;1.42;;
74620;SDS011;64861;47.546;19.254;2023-06-01T09:30:24;8.68;;;1.95;;
74620;SDS011;64861;47.546;19.254;2023-06-01T09:33:11;5.68;;;1.35;;
74620;SDS011;64861;47.546;19.254;2023-06-01T09:35:41;10.00;;;1.80;;
74620;SDS011;64861;47.546;19.254;2023-06-01T09:38:12;12.80;;;1.90;;
74620;SDS011;64861;47.546;19.254;2023-06-01T09:40:55;8.25;;;1.42;;
74620;SDS011;64861;47.546;19.254;2023-06-01T09:43:22;6.05;;;1.63;;
74620;SDS011;64861;47.546;19.254;2023-06-01T09:46:04;4.55;;;1.70;;
74620;SDS011;64861;47.546;19.254;2023-06-01T09:48:33;5.82;;;1.60;;
74620;SDS011;64861;47.546;19.254;2023-06-01T09:50:59;4.93;;;1.38;;
74620;SDS011;64861;47.546;19.254;2023-06-01T09:53:25;4.95;;;1.30;;
74620;SDS011;64861;47.546;19.254;2023-06-01T09:55:57;4.30;;;1.48;;
74620;SDS011;64861;47.546;19.254;2023-06-01T09:58:25;9.38;;;1.75;;
74620;SDS011;64861;47.546;19.254;2023-06-01T10:00:50;6.80;;;1.73;;
74620;SDS011;64861;47.546;19.254;2023-06-01T10:03:17;8.50;;;1.75;;
74620;SDS011;64861;47.546;19.254;2023-06-01T10:05:46;5.32;;;1.52;;
74620;SDS011;64861;47.546;19.254;2023-06-01T10:08:13;5.32;;;1.30;;
74620;SDS011;64861;47.546;19.254;2023-06-01T10:10:42;8.07;;;1.70;;
74620;SDS011;64861;47.546;19.254;2023-06-01T10:13:09;9.95;;;1.67;;
74620;SDS011;64861;47.546;19.254;2023-06-01T10:15:35;9.80;;;1.75;;
74620;SDS011;64861;47.546;19.254;2023-06-01T10:18:02;5.88;;;1.30;;
74620;SDS011;64861;47.546;19.254;2023-06-01T10:20:29;3.45;;;1.20;;
74620;SDS011;64861;47.546;19.254;2023-06-01T10:22:57;5.40;;;1.52;;
74620;SDS011;64861;47.546;19.254;2023-06-01T10:25:25;11.32;;;1.45;;
74620;SDS011;64861;47.546;19.254;2023-06-01T10:28:04;8.38;;;1.48;;
74620;SDS011;64861;47.546;19.254;2023-06-01T10:30:32;6.78;;;1.27;;
74620;SDS011;64861;47.546;19.254;2023-06-01T10:32:58;8.00;;;1.50;;
74620;SDS011;64861;47.546;19.254;2023-06-01T10:40:40;6.68;;;1.48;;
74620;SDS011;64861;47.546;19.254;2023-06-01T10:43:06;5.28;;;1.40;;
74620;SDS011;64861;47.546;19.254;2023-06-01T10:48:03;9.45;;;1.27;;
74620;SDS011;64861;47.546;19.254;2023-06-01T10:50:33;5.75;;;1.20;;
74620;SDS011;64861;47.546;19.254;2023-06-01T10:59:13;4.80;;;1.25;;
74620;SDS011;64861;47.546;19.254;2023-06-01T11:01:41;5.88;;;1.40;;
74620;SDS011;64861;47.546;19.254;2023-06-01T11:04:10;4.28;;;1.10;;
74620;SDS011;64861;47.546;19.254;2023-06-01T11:06:41;7.05;;;1.58;;
74620;SDS011;64861;47.546;19.254;2023-06-01T11:09:08;8.00;;;1.55;;
74620;SDS011;64861;47.546;19.254;2023-06-01T11:14:17;4.95;;;1.38;;
74620;SDS011;64861;47.546;19.254;2023-06-01T11:16:48;7.35;;;1.45;;
74620;SDS011;64861;47.546;19.254;2023-06-01T11:19:25;5.20;;;1.40;;
74620;SDS011;64861;47.546;19.254;2023-06-01T11:21:58;7.13;;;1.48;;
74620;SDS011;64861;47.546;19.254;2023-06-01T11:24:31;5.05;;;1.48;;
74620;SDS011;64861;47.546;19.254;2023-06-01T11:26:58;6.72;;;1.48;;
74620;SDS011;64861;47.546;19.254;2023-06-01T11:29:31;3.63;;;1.35;;
74620;SDS011;64861;47.546;19.254;2023-06-01T11:31:58;5.38;;;1.30;;
74620;SDS011;64861;47.546;19.254;2023-06-01T11:34:32;5.05;;;1.50;;
74620;SDS011;64861;47.546;19.254;2023-06-01T11:36:59;3.47;;;1.30;;
74620;SDS011;64861;47.546;19.254;2023-06-01T11:39:27;3.00;;;1.20;;
74620;SDS011;64861;47.546;19.254;2023-06-01T11:42:05;5.00;;;1.60;;
74620;SDS011;64861;47.546;19.254;2023-06-01T11:44:31;6.97;;;1.48;;
74620;SDS011;64861;47.546;19.254;2023-06-01T11:47:01;4.13;;;1.20;;
74620;SDS011;64861;47.546;19.254;2023-06-01T11:49:27;6.78;;;1.58;;
74620;SDS011;64861;47.546;19.254;2023-06-01T11:51:53;7.28;;;1.48;;
74620;SDS011;64861;47.546;19.254;2023-06-01T11:54:24;5.20;;;1.20;;
74620;SDS011;64861;47.546;19.254;2023-06-01T11:56:51;5.38;;;1.60;;
74620;SDS011;64861;47.546;19.254;2023-06-01T11:59:17;6.35;;;1.55;;
74620;SDS011;64861;47.546;19.254;2023-06-01T12:01:44;6.22;;;1.38;;
74620;SDS011;64861;47.546;19.254;2023-06-01T12:04:17;4.70;;;1.33;;
74620;SDS011;64861;47.546;19.254;2023-06-01T12:06:44;5.13;;;1.50;;
74620;SDS011;64861;47.546;19.254;2023-06-01T12:09:11;9.07;;;1.40;;
74620;SDS011;64861;47.546;19.254;2023-06-01T12:11:38;5.10;;;1.33;;
74620;SDS011;64861;47.546;19.254;2023-06-01T12:14:04;4.63;;;1.05;;
74620;SDS011;64861;47.546;19.254;2023-06-01T12:19:30;6.07;;;1.20;;
74620;SDS011;64861;47.546;19.254;2023-06-01T12:21:57;8.13;;;1.40;;
74620;SDS011;64861;47.546;19.254;2023-06-01T12:24:30;8.07;;;1.30;;
74620;SDS011;64861;47.546;19.254;2023-06-01T12:27:00;5.63;;;1.90;;
74620;SDS011;64861;47.546;19.254;2023-06-01T12:29:40;5.60;;;1.92;;
74620;SDS011;64861;47.546;19.254;2023-06-01T12:32:10;8.35;;;1.75;;
74620;SDS011;64861;47.546;19.254;2023-06-01T12:34:37;6.57;;;1.92;;
74620;SDS011;64861;47.546;19.254;2023-06-01T12:37:13;5.50;;;1.98;;
74620;SDS011;64861;47.546;19.254;2023-06-01T12:39:40;8.25;;;2.10;;
74620;SDS011;64861;47.546;19.254;2023-06-01T12:42:06;10.48;;;2.30;;
74620;SDS011;64861;47.546;19.254;2023-06-01T12:44:33;8.68;;;2.80;;
74620;SDS011;64861;47.546;19.254;2023-06-01T12:46:59;10.40;;;3.60;;
74620;SDS011;64861;47.546;19.254;2023-06-01T12:49:25;10.57;;;3.38;;
74620;SDS011;64861;47.546;19.254;2023-06-01T12:51:52;9.70;;;3.88;;
74620;SDS011;64861;47.546;19.254;2023-06-01T12:54:18;13.00;;;3.70;;
74620;SDS011;64861;47.546;19.254;2023-06-01T12:56:44;9.75;;;3.50;;
74620;SDS011;64861;47.546;19.254;2023-06-01T12:59:12;6.75;;;2.97;;
74620;SDS011;64861;47.546;19.254;2023-06-01T13:01:37;8.30;;;2.83;;
74620;SDS011;64861;47.546;19.254;2023-06-01T13:04:02;6.75;;;3.03;;
74620;SDS011;64861;47.546;19.254;2023-06-01T13:06:28;7.88;;;2.90;;
74620;SDS011;64861;47.546;19.254;2023-06-01T13:08:54;7.95;;;2.60;;
74620;SDS011;64861;47.546;19.254;2023-06-01T13:11:20;8.93;;;3.10;;
74620;SDS011;64861;47.546;19.254;2023-06-01T13:13:47;9.70;;;2.90;;
74620;SDS011;64861;47.546;19.254;2023-06-01T13:16:13;8.75;;;3.13;;
74620;SDS011;64861;47.546;19.254;2023-06-01T13:18:39;10.85;;;3.78;;
74620;SDS011;64861;47.546;19.254;2023-06-01T13:21:05;10.13;;;2.90;;
74620;SDS011;64861;47.546;19.254;2023-06-01T13:23:30;10.80;;;3.03;;
74620;SDS011;64861;47.546;19.254;2023-06-01T13:25:56;11.32;;;3.00;;
74620;SDS011;64861;47.546;19.254;2023-06-01T13:28:21;10.18;;;2.97;;
74620;SDS011;64861;47.546;19.254;2023-06-01T13:30:47;6.45;;;2.90;;
74620;SDS011;64861;47.546;19.254;2023-06-01T13:33:13;7.03;;;2.60;;
74620;SDS011;64861;47.546;19.254;2023-06-01T13:35:38;8.73;;;2.70;;
74620;SDS011;64861;47.546;19.254;2023-06-01T13:38:03;11.13;;;2.83;;
74620;SDS011;64861;47.546;19.254;2023-06-01T13:40:29;7.85;;;2.72;;
74620;SDS011;64861;47.546;19.254;2023-06-01T13:42:54;9.55;;;2.85;;
74620;SDS011;64861;47.546;19.254;2023-06-01T13:45:21;10.55;;;2.80;;
74620;SDS011;64861;47.546;19.254;2023-06-01T13:47:47;9.43;;;3.03;;
74620;SDS011;64861;47.546;19.254;2023-06-01T13:50:15;7.20;;;2.80;;
74620;SDS011;64861;47.546;19.254;2023-06-01T13:52:40;8.52;;;3.00;;
74620;SDS011;64861;47.546;19.254;2023-06-01T13:55:06;10.55;;;2.67;;
74620;SDS011;64861;47.546;19.254;2023-06-01T13:57:33;6.45;;;2.70;;
74620;SDS011;64861;47.546;19.254;2023-06-01T14:00:00;6.25;;;2.55;;
74620;SDS011;64861;47.546;19.254;2023-06-01T14:02:26;5.65;;;2.38;;
74620;SDS011;64861;47.546;19.254;2023-06-01T14:04:51;6.22;;;2.50;;
74620;SDS011;64861;47.546;19.254;2023-06-01T14:07:17;6.15;;;2.58;;
74620;SDS011;64861;47.546;19.254;2023-06-01T14:09:43;5.57;;;2.30;;
74620;SDS011;64861;47.546;19.254;2023-06-01T14:12:09;6.53;;;2.50;;
74620;SDS011;64861;47.546;19.254;2023-06-01T14:14:34;5.72;;;2.35;;
74620;SDS011;64861;47.546;19.254;2023-06-01T14:17:00;6.60;;;2.30;;
74620;SDS011;64861;47.546;19.254;2023-06-01T14:19:25;5.82;;;2.20;;
74620;SDS011;64861;47.546;19.254;2023-06-01T14:21:52;9.77;;;2.65;;
74620;SDS011;64861;47.546;19.254;2023-06-01T14:24:17;5.57;;;2.47;;
74620;SDS011;64861;47.546;19.254;2023-06-01T14:26:43;7.10;;;2.30;;
74620;SDS011;64861;47.546;19.254;2023-06-01T14:29:09;4.97;;;2.17;;
74620;SDS011;64861;47.546;19.254;2023-06-01T14:31:35;5.20;;;2.20;;
74620;SDS011;64861;47.546;19.254;2023-06-01T14:34:01;5.68;;;2.38;;
74620;SDS011;64861;47.546;19.254;2023-06-01T14:36:26;5.82;;;2.00;;
74620;SDS011;64861;47.546;19.254;2023-06-01T14:38:52;4.57;;;2.05;;
74620;SDS011;64861;47.546;19.254;2023-06-01T14:41:17;7.22;;;2.28;;
74620;SDS011;64861;47.546;19.254;2023-06-01T14:43:43;4.43;;;1.92;;
74620;SDS011;64861;47.546;19.254;2023-06-01T14:46:08;5.65;;;2.10;;
74620;SDS011;64861;47.546;19.254;2023-06-01T14:48:33;6.72;;;2.15;;
74620;SDS011;64861;47.546;19.254;2023-06-01T14:50:59;6.10;;;2.10;;
74620;SDS011;64861;47.546;19.254;2023-06-01T14:53:24;5.68;;;2.10;;
74620;SDS011;64861;47.546;19.254;2023-06-01T14:55:50;6.97;;;2.20;;
74620;SDS011;64861;47.546;19.254;2023-06-01T14:58:15;6.13;;;2.50;;
74620;SDS011;64861;47.546;19.254;2023-06-01T15:00:41;6.50;;;1.83;;
74620;SDS011;64861;47.546;19.254;2023-06-01T15:03:06;5.47;;;2.00;;
74620;SDS011;64861;47.546;19.254;2023-06-01T15:05:35;5.43;;;1.90;;
74620;SDS011;64861;47.546;19.254;2023-06-01T15:08:01;4.68;;;2.10;;
74620;SDS011;64861;47.546;19.254;2023-06-01T15:10:26;5.05;;;2.10;;
74620;SDS011;64861;47.546;19.254;2023-06-01T15:12:52;5.28;;;2.10;;
74620;SDS011;64861;47.546;19.254;2023-06-01T15:15:18;4.95;;;2.03;;
74620;SDS011;64861;47.546;19.254;2023-06-01T15:17:45;4.50;;;1.70;;
74620;SDS011;64861;47.546;19.254;2023-06-01T15:20:10;4.82;;;2.03;;
74620;SDS011;64861;47.546;19.254;2023-06-01T15:22:36;5.07;;;1.80;;
74620;SDS011;64861;47.546;19.254;2023-06-01T15:25:02;5.47;;;2.00;;
74620;SDS011;64861;47.546;19.254;2023-06-01T15:27:27;4.88;;;2.22;;
74620;SDS011;64861;47.546;19.254;2023-06-01T15:29:53;5.10;;;1.90;;
74620;SDS011;64861;47.546;19.254;2023-06-01T15:32:18;4.72;;;2.00;;
74620;SDS011;64861;47.546;19.254;2023-06-01T15:34:44;4.57;;;1.70;;
74620;SDS011;64861;47.546;19.254;2023-06-01T15:37:10;4.78;;;1.85;;
74620;SDS011;64861;47.546;19.254;2023-06-01T15:39:36;4.90;;;1.92;;
74620;SDS011;64861;47.546;19.254;2023-06-01T15:42:04;4.13;;;1.90;;
74620;SDS011;64861;47.546;19.254;2023-06-01T15:44:33;5.57;;;1.98;;
74620;SDS011;64861;47.546;19.254;2023-06-01T15:47:03;4.07;;;2.00;;
74620;SDS011;64861;47.546;19.254;2023-06-01T15:49:29;5.53;;;1.70;;
74620;SDS011;64861;47.546;19.254;2023-06-01T15:51:55;4.82;;;1.70;;
74620;SDS011;64861;47.546;19.254;2023-06-01T15:54:21;5.00;;;2.30;;
74620;SDS011;64861;47.546;19.254;2023-06-01T15:56:46;4.63;;;2.00;;
74620;SDS011;64861;47.546;19.254;2023-06-01T15:59:12;4.70;;;1.80;;
74620;SDS011;64861;47.546;19.254;2023-06-01T16:01:37;4.63;;;1.88;;
74620;SDS011;64861;47.546;19.254;2023-06-01T16:04:02;3.60;;;1.70;;
74620;SDS011;64861;47.546;19.254;2023-06-01T16:06:28;3.60;;;1.70;;
74620;SDS011;64861;47.546;19.254;2023-06-01T16:08:53;3.80;;;1.75;;
74620;SDS011;64861;47.546;19.254;2023-06-01T16:11:19;4.15;;;1.70;;
74620;SDS011;64861;47.546;19.254;2023-06-01T16:13:45;4.82;;;1.77;;
74620;SDS011;64861;47.546;19.254;2023-06-01T16:16:11;4.10;;;1.75;;
74620;SDS011;64861;47.546;19.254;2023-06-01T16:18:37;4.85;;;2.03;;
74620;SDS011;64861;47.546;19.254;2023-06-01T16:21:02;3.85;;;1.52;;
74620;SDS011;64861;47.546;19.254;2023-06-01T16:23:28;4.28;;;1.58;;
74620;SDS011;64861;47.546;19.254;2023-06-01T16:25:53;3.47;;;1.83;;
74620;SDS011;64861;47.546;19.254;2023-06-01T16:28:19;4.80;;;1.67;;
74620;SDS011;64861;47.546;19.254;2023-06-01T16:30:44;4.22;;;1.95;;
74620;SDS011;64861;47.546;19.254;2023-06-01T16:33:10;3.80;;;1.63;;
74620;SDS011;64861;47.546;19.254;2023-06-01T16:35:35;3.83;;;1.63;;
74620;SDS011;64861;47.546;19.254;2023-06-01T16:38:01;3.63;;;1.60;;
74620;SDS011;64861;47.546;19.254;2023-06-01T16:40:26;3.08;;;1.42;;
74620;SDS011;64861;47.546;19.254;2023-06-01T16:42:52;5.35;;;1.88;;
74620;SDS011;64861;47.546;19.254;2023-06-01T16:45:17;4.95;;;1.60;;
74620;SDS011;64861;47.546;19.254;2023-06-01T16:47:43;3.88;;;1.52;;
74620;SDS011;64861;47.546;19.254;2023-06-01T16:50:08;3.78;;;1.70;;
74620;SDS011;64861;47.546;19.254;2023-06-01T16:52:34;5.20;;;1.75;;
74620;SDS011;64861;47.546;19.254;2023-06-01T16:54:59;4.85;;;1.80;;
74620;SDS011;64861;47.546;19.254;2023-06-01T16:57:25;6.63;;;1.55;;
74620;SDS011;64861;47.546;19.254;2023-06-01T16:59:53;5.20;;;1.73;;
74620;SDS011;64861;47.546;19.254;2023-06-01T17:02:20;3.67;;;1.70;;
74620;SDS011;64861;47.546;19.254;2023-06-01T17:04:46;6.20;;;1.80;;
74620;SDS011;64861;47.546;19.254;2023-06-01T17:07:11;4.43;;;1.80;;
74620;SDS011;64861;47.546;19.254;2023-06-01T17:09:36;4.22;;;1.67;;
74620;SDS011;64861;47.546;19.254;2023-06-01T17:12:02;5.40;;;1.90;;
74620;SDS011;64861;47.546;19.254;2023-06-01T17:14:27;8.63;;;1.73;;
74620;SDS011;64861;47.546;19.254;2023-06-01T17:16:53;7.38;;;1.73;;
74620;SDS011;64861;47.546;19.254;2023-06-01T17:19:18;8.30;;;2.00;;
74620;SDS011;64861;47.546;19.254;2023-06-01T17:21:44;4.82;;;1.90;;
74620;SDS011;64861;47.546;19.254;2023-06-01T17:24:10;8.05;;;1.95;;
74620;SDS011;64861;47.546;19.254;2023-06-01T17:26:35;8.18;;;2.10;;
74620;SDS011;64861;47.546;19.254;2023-06-01T17:29:01;5.55;;;1.88;;
74620;SDS011;64861;47.546;19.254;2023-06-01T17:31:27;6.75;;;1.90;;
74620;SDS011;64861;47.546;19.254;2023-06-01T17:33:52;8.00;;;1.80;;
74620;SDS011;64861;47.546;19.254;2023-06-01T17:36:18;9.02;;;1.92;;
74620;SDS011;64861;47.546;19.254;2023-06-01T17:38:43;6.30;;;1.77;;
74620;SDS011;64861;47.546;19.254;2023-06-01T17:41:09;5.90;;;1.90;;
74620;SDS011;64861;47.546;19.254;2023-06-01T17:43:34;5.47;;;1.77;;
74620;SDS011;64861;47.546;19.254;2023-06-01T17:46:00;7.72;;;1.77;;
74620;SDS011;64861;47.546;19.254;2023-06-01T17:48:27;5.30;;;1.95;;
74620;SDS011;64861;47.546;19.254;2023-06-01T17:50:52;4.40;;;1.63;;
74620;SDS011;64861;47.546;19.254;2023-06-01T17:53:17;7.90;;;1.92;;
74620;SDS011;64861;47.546;19.254;2023-06-01T17:55:43;6.93;;;1.38;;
74620;SDS011;64861;47.546;19.254;2023-06-01T17:58:08;5.13;;;1.80;;
74620;SDS011;64861;47.546;19.254;2023-06-01T18:00:34;9.20;;;2.10;;
74620;SDS011;64861;47.546;19.254;2023-06-01T18:02:59;8.38;;;1.98;;
74620;SDS011;64861;47.546;19.254;2023-06-01T18:05:25;7.85;;;1.98;;
74620;SDS011;64861;47.546;19.254;2023-06-01T18:07:50;5.82;;;1.90;;
74620;SDS011;64861;47.546;19.254;2023-06-01T18:10:16;5.90;;;1.88;;
74620;SDS011;64861;47.546;19.254;2023-06-01T18:12:41;5.88;;;1.90;;
74620;SDS011;64861;47.546;19.254;2023-06-01T18:15:07;6.22;;;1.90;;
74620;SDS011;64861;47.546;19.254;2023-06-01T18:17:32;6.15;;;1.88;;
74620;SDS011;64861;47.546;19.254;2023-06-01T18:19:59;6.18;;;1.90;;
74620;SDS011;64861;47.546;19.254;2023-06-01T18:22:24;10.38;;;1.90;;
74620;SDS011;64861;47.546;19.254;2023-06-01T18:24:49;5.88;;;1.80;;
74620;SDS011;64861;47.546;19.254;2023-06-01T18:27:15;3.92;;;1.77;;
74620;SDS011;64861;47.546;19.254;2023-06-01T18:29:41;8.73;;;1.80;;
74620;SDS011;64861;47.546;19.254;2023-06-01T18:32:06;2.90;;;1.45;;
74620;SDS011;64861;47.546;19.254;2023-06-01T18:34:33;5.45;;;1.73;;
74620;SDS011;64861;47.546;19.254;2023-06-01T18:36:58;4.10;;;1.77;;
74620;SDS011;64861;47.546;19.254;2023-06-01T18:39:24;4.55;;;1.58;;
74620;SDS011;64861;47.546;19.254;2023-06-01T18:41:50;3.70;;;1.63;;
74620;SDS011;64861;47.546;19.254;2023-06-01T18:44:15;3.08;;;1.52;;
74620;SDS011;64861;47.546;19.254;2023-06-01T18:46:41;5.82;;;1.77;;
74620;SDS011;64861;47.546;19.254;2023-06-01T18:49:06;7.22;;;1.80;;
74620;SDS011;64861;47.546;19.254;2023-06-01T18:51:32;5.25;;;1.50;;
74620;SDS011;64861;47.546;19.254;2023-06-01T18:53:57;9.25;;;1.95;;
74620;SDS011;64861;47.546;19.254;2023-06-01T18:56:23;11.90;;;2.38;;
74620;SDS011;64861;47.546;19.254;2023-06-01T18:58:50;10.60;;;2.30;;
74620;SDS011;64861;47.546;19.254;2023-06-01T19:01:16;12.55;;;2.28;;
74620;SDS011;64861;47.546;19.254;2023-06-01T19:03:41;6.05;;;2.00;;
74620;SDS011;64861;47.546;19.254;2023-06-01T19:06:07;5.15;;;1.75;;
74620;SDS011;64861;47.546;19.254;2023-06-01T19:08:34;4.78;;;1.77;;
74620;SDS011;64861;47.546;19.254;2023-06-01T19:11:02;7.00;;;1.90;;
74620;SDS011;64861;47.546;19.254;2023-06-01T19:16:03;4.55;;;1.55;;
74620;SDS011;64861;47.546;19.254;2023-06-01T19:18:31;5.10;;;1.67;;
74620;SDS011;64861;47.546;19.254;2023-06-01T19:21:11;5.32;;;1.85;;
74620;SDS011;64861;47.546;19.254;2023-06-01T19:23:45;4.53;;;1.80;;
74620;SDS011;64861;47.546;19.254;2023-06-01T19:26:16;3.88;;;1.80;;
74620;SDS011;64861;47.546;19.254;2023-06-01T19:28:44;4.90;;;1.88;;
74620;SDS011;64861;47.546;19.254;2023-06-01T19:31:12;4.88;;;1.88;;
74620;SDS011;64861;47.546;19.254;2023-06-01T19:33:39;4.15;;;1.73;;
74620;SDS011;64861;47.546;19.254;2023-06-01T19:36:04;4.90;;;1.90;;
74620;SDS011;64861;47.546;19.254;2023-06-01T19:38:31;3.65;;;1.90;;
74620;SDS011;64861;47.546;19.254;2023-06-01T19:40:58;4.97;;;1.90;;
74620;SDS011;64861;47.546;19.254;2023-06-01T19:46:05;9.65;;;2.25;;
74620;SDS011;64861;47.546;19.254;2023-06-01T19:48:44;7.60;;;2.53;;
74620;SDS011;64861;47.546;19.254;2023-06-01T19:51:11;6.63;;;1.70;;
74620;SDS011;64861;47.546;19.254;2023-06-01T19:53:38;6.03;;;2.25;;
74620;SDS011;64861;47.546;19.254;2023-06-01T19:56:16;8.37;;;1.90;;
74620;SDS011;64861;47.546;19.254;2023-06-01T19:58:56;5.93;;;2.38;;
74620;SDS011;64861;47.546;19.254;2023-06-01T20:01:22;5.32;;;1.90;;
74620;SDS011;64861;47.546;19.254;2023-06-01T20:03:49;4.00;;;1.73;;
74620;SDS011;64861;47.546;19.254;2023-06-01T20:06:14;4.47;;;1.90;;
74620;SDS011;64861;47.546;19.254;2023-06-01T20:08:42;6.70;;;1.75;;
74620;SDS011;64861;47.546;19.254;2023-06-01T20:11:08;10.00;;;3.00;;
74620;SDS011;64861;47.546;19.254;2023-06-01T20:13:34;5.88;;;2.60;;
74620;SDS011;64861;47.546;19.254;2023-06-01T20:16:00;5.47;;;2.30;;
74620;SDS011;64861;47.546;19.254;2023-06-01T20:18:26;6.60;;;2.05;;
74620;SDS011;64861;47.546;19.254;2023-06-01T20:20:52;5.70;;;2.17;;
74620;SDS011;64861;47.546;19.254;2023-06-01T20:23:17;6.72;;;2.50;;